sensor_id;sensor_type;location;lat;lon;timestamp;temperature;humidity
33803;DHT22;20110;53.120;5.786;2023-03-04T00:02:01;4.80;99.90
33803;DHT22;20110;53.120;5.786;2023-03-04T00:04:28;4.80;99.90
33803;DHT22;20110;53.120;5.786;2023-03-04T00:06:54;4.70;99.90
33803;DHT22;20110;53.120;5.786;2023-03-04T00:09:19;4.70;99.90
33803;DHT22;20110;53.120;5.786;2023-03-04T00:11:45;4.70;99.90
33803;DHT22;20110;53.120;5.786;2023-03-04T00:14:11;4.70;99.90
33803;DHT22;20110;53.120;5.786;2023-03-04T00:16:37;4.70;99.90
33803;DHT22;20110;53.120;5.786;2023-03-04T00:19:03;4.70;99.90
33803;DHT22;20110;53.120;5.786;2023-03-04T00:21:29;4.70;99.90
33803;DHT22;20110;53.120;5.786;2023-03-04T00:23:55;4.60;99.90
33803;DHT22;20110;53.120;5.786;2023-03-04T00:26:21;4.70;99.90
33803;DHT22;20110;53.120;5.786;2023-03-04T00:28:47;4.80;99.90
33803;DHT22;20110;53.120;5.786;2023-03-04T00:31:13;4.80;99.90
33803;DHT22;20110;53.120;5.786;2023-03-04T00:33:38;4.80;99.90
33803;DHT22;20110;53.120;5.786;2023-03-04T00:36:05;4.80;99.90
33803;DHT22;20110;53.120;5.786;2023-03-04T00:38:31;4.70;99.90
33803;DHT22;20110;53.120;5.786;2023-03-04T00:40:57;4.60;99.90
33803;DHT22;20110;53.120;5.786;2023-03-04T00:43:23;4.70;99.90
33803;DHT22;20110;53.120;5.786;2023-03-04T00:45:49;4.70;99.90
33803;DHT22;20110;53.120;5.786;2023-03-04T00:48:15;4.70;99.90
33803;DHT22;20110;53.120;5.786;2023-03-04T00:50:41;4.70;99.90
33803;DHT22;20110;53.120;5.786;2023-03-04T00:53:08;4.70;99.90
33803;DHT22;20110;53.120;5.786;2023-03-04T00:55:36;4.70;99.90
33803;DHT22;20110;53.120;5.786;2023-03-04T00:58:02;4.70;99.90
33803;DHT22;20110;53.120;5.786;2023-03-04T01:00:28;4.80;99.90
33803;DHT22;20110;53.120;5.786;2023-03-04T01:02:54;4.80;99.90
33803;DHT22;20110;53.120;5.786;2023-03-04T01:05:20;4.70;99.90
33803;DHT22;20110;53.120;5.786;2023-03-04T01:07:46;4.70;99.90
33803;DHT22;20110;53.120;5.786;2023-03-04T01:10:13;4.70;99.90
33803;DHT22;20110;53.120;5.786;2023-03-04T01:12:39;4.70;99.90
33803;DHT22;20110;53.120;5.786;2023-03-04T01:15:08;4.70;99.90
33803;DHT22;20110;53.120;5.786;2023-03-04T01:17:35;4.60;99.90
33803;DHT22;20110;53.120;5.786;2023-03-04T01:20:02;4.60;99.90
33803;DHT22;20110;53.120;5.786;2023-03-04T01:22:29;4.60;99.90
33803;DHT22;20110;53.120;5.786;2023-03-04T01:24:55;4.60;99.90
33803;DHT22;20110;53.120;5.786;2023-03-04T01:27:20;4.60;99.90
33803;DHT22;20110;53.120;5.786;2023-03-04T01:29:46;4.60;99.90
33803;DHT22;20110;53.120;5.786;2023-03-04T01:32:12;4.60;99.90
33803;DHT22;20110;53.120;5.786;2023-03-04T01:34:38;4.60;99.90
33803;DHT22;20110;53.120;5.786;2023-03-04T01:37:04;4.20;99.90
33803;DHT22;20110;53.120;5.786;2023-03-04T01:39:30;4.30;99.90
33803;DHT22;20110;53.120;5.786;2023-03-04T01:41:56;4.40;99.90
33803;DHT22;20110;53.120;5.786;2023-03-04T01:44:22;4.50;99.90
33803;DHT22;20110;53.120;5.786;2023-03-04T01:46:51;4.60;99.90
33803;DHT22;20110;53.120;5.786;2023-03-04T01:49:20;4.60;99.90
33803;DHT22;20110;53.120;5.786;2023-03-04T01:51:52;4.60;99.90
33803;DHT22;20110;53.120;5.786;2023-03-04T01:54:20;4.60;99.90
33803;DHT22;20110;53.120;5.786;2023-03-04T01:56:48;4.60;99.90
33803;DHT22;20110;53.120;5.786;2023-03-04T01:59:19;4.50;99.90
33803;DHT22;20110;53.120;5.786;2023-03-04T02:01:58;4.50;99.90
33803;DHT22;20110;53.120;5.786;2023-03-04T02:04:28;4.50;99.90
33803;DHT22;20110;53.120;5.786;2023-03-04T02:06:57;4.50;99.90
33803;DHT22;20110;53.120;5.786;2023-03-04T02:09:25;4.60;99.90
33803;DHT22;20110;53.120;5.786;2023-03-04T02:11:52;4.60;99.90
33803;DHT22;20110;53.120;5.786;2023-03-04T02:14:19;4.60;99.90
33803;DHT22;20110;53.120;5.786;2023-03-04T02:16:46;4.60;99.90
33803;DHT22;20110;53.120;5.786;2023-03-04T02:19:25;4.60;99.90
33803;DHT22;20110;53.120;5.786;2023-03-04T02:22:12;4.60;99.90
33803;DHT22;20110;53.120;5.786;2023-03-04T02:24:56;4.60;99.90
33803;DHT22;20110;53.120;5.786;2023-03-04T02:27:28;4.60;99.90
33803;DHT22;20110;53.120;5.786;2023-03-04T02:29:54;4.50;99.90
33803;DHT22;20110;53.120;5.786;2023-03-04T02:32:20;4.60;99.90
33803;DHT22;20110;53.120;5.786;2023-03-04T02:34:48;4.60;99.90
33803;DHT22;20110;53.120;5.786;2023-03-04T02:37:16;4.60;99.90
33803;DHT22;20110;53.120;5.786;2023-03-04T02:39:47;4.60;99.90
33803;DHT22;20110;53.120;5.786;2023-03-04T02:42:15;4.60;99.90
33803;DHT22;20110;53.120;5.786;2023-03-04T02:44:44;4.60;99.90
33803;DHT22;20110;53.120;5.786;2023-03-04T02:47:14;4.60;99.90
33803;DHT22;20110;53.120;5.786;2023-03-04T02:49:43;4.60;99.90
33803;DHT22;20110;53.120;5.786;2023-03-04T02:52:28;4.60;99.90
33803;DHT22;20110;53.120;5.786;2023-03-04T02:54:53;4.70;99.90
33803;DHT22;20110;53.120;5.786;2023-03-04T02:57:19;4.70;99.90
33803;DHT22;20110;53.120;5.786;2023-03-04T02:59:45;4.70;99.90
33803;DHT22;20110;53.120;5.786;2023-03-04T03:02:11;4.70;99.90
33803;DHT22;20110;53.120;5.786;2023-03-04T03:04:38;4.80;99.90
33803;DHT22;20110;53.120;5.786;2023-03-04T03:07:05;4.70;99.90
33803;DHT22;20110;53.120;5.786;2023-03-04T03:09:31;4.70;99.90
33803;DHT22;20110;53.120;5.786;2023-03-04T03:11:57;4.80;99.90
33803;DHT22;20110;53.120;5.786;2023-03-04T03:14:24;4.80;99.90
33803;DHT22;20110;53.120;5.786;2023-03-04T03:16:49;4.70;99.90
33803;DHT22;20110;53.120;5.786;2023-03-04T03:19:15;4.60;99.90
33803;DHT22;20110;53.120;5.786;2023-03-04T03:21:41;4.70;99.90
33803;DHT22;20110;53.120;5.786;2023-03-04T03:24:07;4.70;99.90
33803;DHT22;20110;53.120;5.786;2023-03-04T03:26:33;4.70;99.90
33803;DHT22;20110;53.120;5.786;2023-03-04T03:28:58;4.70;99.90
33803;DHT22;20110;53.120;5.786;2023-03-04T03:31:24;4.70;99.90
33803;DHT22;20110;53.120;5.786;2023-03-04T03:33:50;4.70;99.90
33803;DHT22;20110;53.120;5.786;2023-03-04T03:36:16;4.70;99.90
33803;DHT22;20110;53.120;5.786;2023-03-04T03:38:41;4.70;99.90
33803;DHT22;20110;53.120;5.786;2023-03-04T03:41:07;4.70;99.90
33803;DHT22;20110;53.120;5.786;2023-03-04T03:43:33;4.70;99.90
33803;DHT22;20110;53.120;5.786;2023-03-04T03:45:59;4.70;99.90
33803;DHT22;20110;53.120;5.786;2023-03-04T03:48:25;4.70;99.90
33803;DHT22;20110;53.120;5.786;2023-03-04T03:50:51;4.70;99.90
33803;DHT22;20110;53.120;5.786;2023-03-04T03:53:16;4.70;99.90
33803;DHT22;20110;53.120;5.786;2023-03-04T03:55:42;4.70;99.90
33803;DHT22;20110;53.120;5.786;2023-03-04T03:58:08;4.70;99.90
33803;DHT22;20110;53.120;5.786;2023-03-04T04:00:34;4.70;99.90
33803;DHT22;20110;53.120;5.786;2023-03-04T04:03:00;4.70;99.90
33803;DHT22;20110;53.120;5.786;2023-03-04T04:05:26;4.70;99.90
33803;DHT22;20110;53.120;5.786;2023-03-04T04:07:52;4.70;99.90
33803;DHT22;20110;53.120;5.786;2023-03-04T04:10:18;4.70;99.90
33803;DHT22;20110;53.120;5.786;2023-03-04T04:12:45;4.70;99.90
33803;DHT22;20110;53.120;5.786;2023-03-04T04:15:11;4.70;99.90
33803;DHT22;20110;53.120;5.786;2023-03-04T04:17:37;4.70;99.90
33803;DHT22;20110;53.120;5.786;2023-03-04T04:20:05;4.80;99.90
33803;DHT22;20110;53.120;5.786;2023-03-04T04:22:32;4.80;99.90
33803;DHT22;20110;53.120;5.786;2023-03-04T04:24:57;4.80;99.90
33803;DHT22;20110;53.120;5.786;2023-03-04T04:27:23;4.70;99.90
33803;DHT22;20110;53.120;5.786;2023-03-04T04:29:49;4.70;99.90
33803;DHT22;20110;53.120;5.786;2023-03-04T04:32:15;4.70;99.90
33803;DHT22;20110;53.120;5.786;2023-03-04T04:34:41;4.70;99.90
33803;DHT22;20110;53.120;5.786;2023-03-04T04:37:07;4.60;99.90
33803;DHT22;20110;53.120;5.786;2023-03-04T04:39:33;4.60;99.90
33803;DHT22;20110;53.120;5.786;2023-03-04T04:41:58;4.60;99.90
33803;DHT22;20110;53.120;5.786;2023-03-04T04:44:24;4.60;99.90
33803;DHT22;20110;53.120;5.786;2023-03-04T04:46:50;4.60;99.90
33803;DHT22;20110;53.120;5.786;2023-03-04T04:49:16;4.60;99.90
33803;DHT22;20110;53.120;5.786;2023-03-04T04:51:42;4.60;99.90
33803;DHT22;20110;53.120;5.786;2023-03-04T04:54:09;4.60;99.90
33803;DHT22;20110;53.120;5.786;2023-03-04T04:56:35;4.70;99.90
33803;DHT22;20110;53.120;5.786;2023-03-04T04:59:03;4.70;99.90
33803;DHT22;20110;53.120;5.786;2023-03-04T05:01:29;4.70;99.90
33803;DHT22;20110;53.120;5.786;2023-03-04T05:03:56;4.70;99.90
33803;DHT22;20110;53.120;5.786;2023-03-04T05:06:22;4.70;99.90
33803;DHT22;20110;53.120;5.786;2023-03-04T05:08:49;4.60;99.90
33803;DHT22;20110;53.120;5.786;2023-03-04T05:11:16;4.50;99.90
33803;DHT22;20110;53.120;5.786;2023-03-04T05:13:44;4.40;99.90
33803;DHT22;20110;53.120;5.786;2023-03-04T05:16:10;4.20;99.90
33803;DHT22;20110;53.120;5.786;2023-03-04T05:18:36;4.20;99.90
33803;DHT22;20110;53.120;5.786;2023-03-04T05:21:03;4.10;99.90
33803;DHT22;20110;53.120;5.786;2023-03-04T05:23:32;4.10;99.90
33803;DHT22;20110;53.120;5.786;2023-03-04T05:26:03;4.10;99.90
33803;DHT22;20110;53.120;5.786;2023-03-04T05:28:30;4.10;99.90
33803;DHT22;20110;53.120;5.786;2023-03-04T05:30:56;4.10;99.90
33803;DHT22;20110;53.120;5.786;2023-03-04T05:33:22;4.10;99.90
33803;DHT22;20110;53.120;5.786;2023-03-04T05:35:49;4.10;99.90
33803;DHT22;20110;53.120;5.786;2023-03-04T05:38:17;4.10;99.90
33803;DHT22;20110;53.120;5.786;2023-03-04T05:40:44;4.10;99.90
33803;DHT22;20110;53.120;5.786;2023-03-04T05:43:11;4.20;99.90
33803;DHT22;20110;53.120;5.786;2023-03-04T05:45:37;4.10;99.90
33803;DHT22;20110;53.120;5.786;2023-03-04T05:48:04;4.10;99.90
33803;DHT22;20110;53.120;5.786;2023-03-04T05:50:31;4.10;99.90
33803;DHT22;20110;53.120;5.786;2023-03-04T05:52:57;4.00;99.90
33803;DHT22;20110;53.120;5.786;2023-03-04T05:55:23;4.10;99.90
33803;DHT22;20110;53.120;5.786;2023-03-04T05:57:50;4.00;99.90
33803;DHT22;20110;53.120;5.786;2023-03-04T06:00:16;4.00;99.90
33803;DHT22;20110;53.120;5.786;2023-03-04T06:02:43;3.90;99.90
33803;DHT22;20110;53.120;5.786;2023-03-04T06:05:10;4.00;99.90
33803;DHT22;20110;53.120;5.786;2023-03-04T06:07:37;4.00;99.90
33803;DHT22;20110;53.120;5.786;2023-03-04T06:10:05;4.10;99.90
33803;DHT22;20110;53.120;5.786;2023-03-04T06:12:32;4.00;99.90
33803;DHT22;20110;53.120;5.786;2023-03-04T06:14:58;4.10;99.90
33803;DHT22;20110;53.120;5.786;2023-03-04T06:17:24;4.20;99.90
33803;DHT22;20110;53.120;5.786;2023-03-04T06:19:50;4.20;99.90
33803;DHT22;20110;53.120;5.786;2023-03-04T06:22:15;4.20;99.90
33803;DHT22;20110;53.120;5.786;2023-03-04T06:24:41;4.30;99.90
33803;DHT22;20110;53.120;5.786;2023-03-04T06:27:07;4.30;99.90
33803;DHT22;20110;53.120;5.786;2023-03-04T06:29:33;4.30;99.90
33803;DHT22;20110;53.120;5.786;2023-03-04T06:31:59;4.30;99.90
33803;DHT22;20110;53.120;5.786;2023-03-04T06:34:25;4.50;99.90
33803;DHT22;20110;53.120;5.786;2023-03-04T06:36:51;4.40;99.90
33803;DHT22;20110;53.120;5.786;2023-03-04T06:39:16;4.40;99.90
33803;DHT22;20110;53.120;5.786;2023-03-04T06:41:42;4.40;99.90
33803;DHT22;20110;53.120;5.786;2023-03-04T06:44:08;4.40;99.90
33803;DHT22;20110;53.120;5.786;2023-03-04T06:46:35;4.40;99.90
33803;DHT22;20110;53.120;5.786;2023-03-04T06:49:01;4.30;99.90
33803;DHT22;20110;53.120;5.786;2023-03-04T06:51:27;4.20;99.90
33803;DHT22;20110;53.120;5.786;2023-03-04T06:53:53;4.20;99.90
33803;DHT22;20110;53.120;5.786;2023-03-04T06:56:19;4.10;99.90
33803;DHT22;20110;53.120;5.786;2023-03-04T06:58:45;4.10;99.90
33803;DHT22;20110;53.120;5.786;2023-03-04T07:01:23;4.20;99.90
33803;DHT22;20110;53.120;5.786;2023-03-04T07:03:51;4.20;99.90
33803;DHT22;20110;53.120;5.786;2023-03-04T07:06:21;4.30;99.90
33803;DHT22;20110;53.120;5.786;2023-03-04T07:08:50;4.30;99.90
33803;DHT22;20110;53.120;5.786;2023-03-04T07:11:17;4.30;99.90
33803;DHT22;20110;53.120;5.786;2023-03-04T07:13:44;4.30;99.90
33803;DHT22;20110;53.120;5.786;2023-03-04T07:16:12;4.40;99.90
33803;DHT22;20110;53.120;5.786;2023-03-04T07:18:42;4.40;99.90
33803;DHT22;20110;53.120;5.786;2023-03-04T07:21:10;4.40;99.90
33803;DHT22;20110;53.120;5.786;2023-03-04T07:23:37;4.50;99.90
33803;DHT22;20110;53.120;5.786;2023-03-04T07:26:03;4.60;99.90
33803;DHT22;20110;53.120;5.786;2023-03-04T07:28:29;4.60;99.90
33803;DHT22;20110;53.120;5.786;2023-03-04T07:30:55;4.60;99.90
33803;DHT22;20110;53.120;5.786;2023-03-04T07:33:21;4.70;99.90
33803;DHT22;20110;53.120;5.786;2023-03-04T07:35:47;4.70;99.90
33803;DHT22;20110;53.120;5.786;2023-03-04T07:38:13;4.80;99.90
33803;DHT22;20110;53.120;5.786;2023-03-04T07:40:39;4.80;99.90
33803;DHT22;20110;53.120;5.786;2023-03-04T07:43:05;4.80;99.90
33803;DHT22;20110;53.120;5.786;2023-03-04T07:45:31;4.80;99.90
33803;DHT22;20110;53.120;5.786;2023-03-04T07:47:57;4.90;99.90
33803;DHT22;20110;53.120;5.786;2023-03-04T07:50:25;4.90;99.90
33803;DHT22;20110;53.120;5.786;2023-03-04T07:52:51;4.90;99.90
33803;DHT22;20110;53.120;5.786;2023-03-04T07:55:18;4.80;99.90
33803;DHT22;20110;53.120;5.786;2023-03-04T07:57:45;4.80;99.90
33803;DHT22;20110;53.120;5.786;2023-03-04T08:00:14;4.70;99.90
33803;DHT22;20110;53.120;5.786;2023-03-04T08:02:43;4.70;99.90
33803;DHT22;20110;53.120;5.786;2023-03-04T08:05:09;4.60;99.90
33803;DHT22;20110;53.120;5.786;2023-03-04T08:07:35;4.60;99.90
33803;DHT22;20110;53.120;5.786;2023-03-04T08:10:01;4.60;99.90
33803;DHT22;20110;53.120;5.786;2023-03-04T08:12:26;4.60;99.90
33803;DHT22;20110;53.120;5.786;2023-03-04T08:14:54;4.80;99.90
33803;DHT22;20110;53.120;5.786;2023-03-04T08:17:19;4.90;99.90
33803;DHT22;20110;53.120;5.786;2023-03-04T08:19:45;5.00;99.90
33803;DHT22;20110;53.120;5.786;2023-03-04T08:22:13;5.10;99.90
33803;DHT22;20110;53.120;5.786;2023-03-04T08:24:38;5.10;99.90
33803;DHT22;20110;53.120;5.786;2023-03-04T08:27:04;5.20;99.90
33803;DHT22;20110;53.120;5.786;2023-03-04T08:29:30;5.20;99.90
33803;DHT22;20110;53.120;5.786;2023-03-04T08:31:56;5.20;99.90
33803;DHT22;20110;53.120;5.786;2023-03-04T08:34:25;5.20;99.90
33803;DHT22;20110;53.120;5.786;2023-03-04T08:36:52;5.20;99.90
33803;DHT22;20110;53.120;5.786;2023-03-04T08:39:19;5.20;99.90
33803;DHT22;20110;53.120;5.786;2023-03-04T08:41:46;5.30;99.90
33803;DHT22;20110;53.120;5.786;2023-03-04T08:44:12;5.30;99.90
33803;DHT22;20110;53.120;5.786;2023-03-04T08:46:40;5.50;99.90
33803;DHT22;20110;53.120;5.786;2023-03-04T08:49:08;5.50;99.90
33803;DHT22;20110;53.120;5.786;2023-03-04T08:51:36;5.60;99.90
33803;DHT22;20110;53.120;5.786;2023-03-04T08:54:03;5.60;99.90
33803;DHT22;20110;53.120;5.786;2023-03-04T08:56:30;5.60;99.90
33803;DHT22;20110;53.120;5.786;2023-03-04T08:58:57;5.60;99.90
33803;DHT22;20110;53.120;5.786;2023-03-04T09:01:23;5.70;99.90
33803;DHT22;20110;53.120;5.786;2023-03-04T09:03:49;5.80;99.90
33803;DHT22;20110;53.120;5.786;2023-03-04T09:06:15;5.80;99.90
33803;DHT22;20110;53.120;5.786;2023-03-04T09:08:43;5.70;99.90
33803;DHT22;20110;53.120;5.786;2023-03-04T09:11:10;5.60;99.90
33803;DHT22;20110;53.120;5.786;2023-03-04T09:13:37;5.40;99.90
33803;DHT22;20110;53.120;5.786;2023-03-04T09:16:10;5.40;99.90
33803;DHT22;20110;53.120;5.786;2023-03-04T09:18:38;5.40;99.90
33803;DHT22;20110;53.120;5.786;2023-03-04T09:21:06;5.40;99.90
33803;DHT22;20110;53.120;5.786;2023-03-04T09:23:33;5.50;99.90
33803;DHT22;20110;53.120;5.786;2023-03-04T09:26:00;5.60;99.90
33803;DHT22;20110;53.120;5.786;2023-03-04T09:28:26;5.70;99.90
33803;DHT22;20110;53.120;5.786;2023-03-04T09:30:51;5.80;99.90
33803;DHT22;20110;53.120;5.786;2023-03-04T09:33:17;5.80;99.90
33803;DHT22;20110;53.120;5.786;2023-03-04T09:35:43;5.70;99.90
33803;DHT22;20110;53.120;5.786;2023-03-04T09:38:09;5.70;99.90
33803;DHT22;20110;53.120;5.786;2023-03-04T09:40:41;5.70;99.90
33803;DHT22;20110;53.120;5.786;2023-03-04T09:43:22;5.70;99.90
33803;DHT22;20110;53.120;5.786;2023-03-04T09:45:56;5.80;99.90
33803;DHT22;20110;53.120;5.786;2023-03-04T09:48:28;5.90;99.90
33803;DHT22;20110;53.120;5.786;2023-03-04T09:51:20;5.90;99.90
33803;DHT22;20110;53.120;5.786;2023-03-04T09:54:17;6.00;99.90
33803;DHT22;20110;53.120;5.786;2023-03-04T09:56:45;6.00;99.90
33803;DHT22;20110;53.120;5.786;2023-03-04T09:59:24;6.00;99.90
33803;DHT22;20110;53.120;5.786;2023-03-04T10:05:25;6.20;99.90
33803;DHT22;20110;53.120;5.786;2023-03-04T10:08:09;6.20;99.90
33803;DHT22;20110;53.120;5.786;2023-03-04T10:10:44;6.30;99.90
33803;DHT22;20110;53.120;5.786;2023-03-04T10:13:24;6.40;99.90
33803;DHT22;20110;53.120;5.786;2023-03-04T10:15:58;6.40;99.90
33803;DHT22;20110;53.120;5.786;2023-03-04T10:18:36;6.40;99.90
33803;DHT22;20110;53.120;5.786;2023-03-04T10:24:14;6.20;99.90
33803;DHT22;20110;53.120;5.786;2023-03-04T10:26:53;6.10;99.90
33803;DHT22;20110;53.120;5.786;2023-03-04T10:29:28;6.10;99.90
33803;DHT22;20110;53.120;5.786;2023-03-04T10:31:55;6.20;99.90
33803;DHT22;20110;53.120;5.786;2023-03-04T10:34:21;6.30;99.90
33803;DHT22;20110;53.120;5.786;2023-03-04T10:37:00;6.40;99.90
33803;DHT22;20110;53.120;5.786;2023-03-04T10:39:42;6.50;99.90
33803;DHT22;20110;53.120;5.786;2023-03-04T10:44:42;6.70;99.90
33803;DHT22;20110;53.120;5.786;2023-03-04T10:47:16;7.10;99.90
33803;DHT22;20110;53.120;5.786;2023-03-04T10:49:56;7.10;99.90
33803;DHT22;20110;53.120;5.786;2023-03-04T10:52:45;6.90;99.90
33803;DHT22;20110;53.120;5.786;2023-03-04T10:58:35;6.40;99.90
33803;DHT22;20110;53.120;5.786;2023-03-04T11:00:42;6.30;99.90
33803;DHT22;20110;53.120;5.786;2023-03-04T11:08:32;6.90;99.90
33803;DHT22;20110;53.120;5.786;2023-03-04T11:10:58;7.30;99.90
33803;DHT22;20110;53.120;5.786;2023-03-04T11:13:25;7.40;99.90
33803;DHT22;20110;53.120;5.786;2023-03-04T11:16:03;7.30;99.90
33803;DHT22;20110;53.120;5.786;2023-03-04T11:18:47;7.30;99.90
33803;DHT22;20110;53.120;5.786;2023-03-04T11:21:29;7.10;99.90
33803;DHT22;20110;53.120;5.786;2023-03-04T11:24:14;6.90;99.90
33803;DHT22;20110;53.120;5.786;2023-03-04T11:26:52;6.70;99.90
33803;DHT22;20110;53.120;5.786;2023-03-04T11:30:45;6.50;99.90
33803;DHT22;20110;53.120;5.786;2023-03-04T11:36:50;6.50;99.90
33803;DHT22;20110;53.120;5.786;2023-03-04T11:39:51;6.60;99.90
33803;DHT22;20110;53.120;5.786;2023-03-04T11:44:50;6.90;99.90
33803;DHT22;20110;53.120;5.786;2023-03-04T11:47:41;6.90;99.90
33803;DHT22;20110;53.120;5.786;2023-03-04T12:15:41;7.00;99.90
33803;DHT22;20110;53.120;5.786;2023-03-04T12:21:29;6.90;99.90
33803;DHT22;20110;53.120;5.786;2023-03-04T12:29:51;6.90;99.90
33803;DHT22;20110;53.120;5.786;2023-03-04T12:59:19;6.80;96.90
33803;DHT22;20110;53.120;5.786;2023-03-04T13:09:06;6.90;98.60
33803;DHT22;20110;53.120;5.786;2023-03-04T13:11:49;6.90;99.90
33803;DHT22;20110;53.120;5.786;2023-03-04T13:16:48;6.40;99.90
33803;DHT22;20110;53.120;5.786;2023-03-04T13:19:55;6.40;99.90
33803;DHT22;20110;53.120;5.786;2023-03-04T13:24:58;6.90;99.90
33803;DHT22;20110;53.120;5.786;2023-03-04T13:27:48;7.10;99.90
33803;DHT22;20110;53.120;5.786;2023-03-04T13:43:53;6.50;99.90
33803;DHT22;20110;53.120;5.786;2023-03-04T13:51:41;5.80;99.90
33803;DHT22;20110;53.120;5.786;2023-03-04T13:57:01;5.40;99.90
33803;DHT22;20110;53.120;5.786;2023-03-04T13:59:56;5.10;99.90
33803;DHT22;20110;53.120;5.786;2023-03-04T14:02:24;5.00;99.90
33803;DHT22;20110;53.120;5.786;2023-03-04T14:04:59;5.00;99.90
33803;DHT22;20110;53.120;5.786;2023-03-04T14:07:35;5.20;99.90
33803;DHT22;20110;53.120;5.786;2023-03-04T14:12:55;5.30;99.90
33803;DHT22;20110;53.120;5.786;2023-03-04T14:15:28;5.50;99.90
33803;DHT22;20110;53.120;5.786;2023-03-04T14:17:57;5.70;99.90
33803;DHT22;20110;53.120;5.786;2023-03-04T14:20:32;5.80;99.90
33803;DHT22;20110;53.120;5.786;2023-03-04T14:23:01;6.00;99.90
33803;DHT22;20110;53.120;5.786;2023-03-04T14:25:31;6.10;99.90
33803;DHT22;20110;53.120;5.786;2023-03-04T14:28:08;6.10;99.90
33803;DHT22;20110;53.120;5.786;2023-03-04T14:30:41;6.30;99.90
33803;DHT22;20110;53.120;5.786;2023-03-04T14:33:14;6.60;99.90
33803;DHT22;20110;53.120;5.786;2023-03-04T14:35:52;6.80;99.90
33803;DHT22;20110;53.120;5.786;2023-03-04T14:38:23;6.60;99.90
33803;DHT22;20110;53.120;5.786;2023-03-04T14:43:49;6.20;99.90
33803;DHT22;20110;53.120;5.786;2023-03-04T14:46:19;5.90;99.90
33803;DHT22;20110;53.120;5.786;2023-03-04T14:48:50;5.80;99.90
33803;DHT22;20110;53.120;5.786;2023-03-04T14:51:50;5.70;99.90
33803;DHT22;20110;53.120;5.786;2023-03-04T14:57:32;5.90;99.90
33803;DHT22;20110;53.120;5.786;2023-03-04T15:02:40;5.70;99.90
33803;DHT22;20110;53.120;5.786;2023-03-04T15:05:26;5.60;99.90
33803;DHT22;20110;53.120;5.786;2023-03-04T15:07:59;5.60;99.90
33803;DHT22;20110;53.120;5.786;2023-03-04T15:10:32;5.70;99.90
33803;DHT22;20110;53.120;5.786;2023-03-04T15:13:02;5.80;99.90
33803;DHT22;20110;53.120;5.786;2023-03-04T15:20:40;5.80;99.90
33803;DHT22;20110;53.120;5.786;2023-03-04T15:23:06;5.60;99.90
33803;DHT22;20110;53.120;5.786;2023-03-04T15:25:33;5.10;99.90
33803;DHT22;20110;53.120;5.786;2023-03-04T15:27:59;4.70;99.90
33803;DHT22;20110;53.120;5.786;2023-03-04T15:30:29;4.30;99.90
33803;DHT22;20110;53.120;5.786;2023-03-04T15:32:58;4.00;99.90
33803;DHT22;20110;53.120;5.786;2023-03-04T15:35:27;3.90;99.90
33803;DHT22;20110;53.120;5.786;2023-03-04T15:37:55;3.80;99.90
33803;DHT22;20110;53.120;5.786;2023-03-04T15:40:36;3.80;99.90
33803;DHT22;20110;53.120;5.786;2023-03-04T15:43:16;3.70;99.90
33803;DHT22;20110;53.120;5.786;2023-03-04T15:45:43;3.70;99.90
33803;DHT22;20110;53.120;5.786;2023-03-04T15:48:13;3.80;99.90
33803;DHT22;20110;53.120;5.786;2023-03-04T15:50:50;3.80;99.90
33803;DHT22;20110;53.120;5.786;2023-03-04T15:53:41;3.90;99.90
33803;DHT22;20110;53.120;5.786;2023-03-04T15:56:15;4.00;99.90
33803;DHT22;20110;53.120;5.786;2023-03-04T15:58:53;4.10;99.90
33803;DHT22;20110;53.120;5.786;2023-03-04T16:01:21;4.10;99.90
33803;DHT22;20110;53.120;5.786;2023-03-04T16:03:48;4.10;99.90
33803;DHT22;20110;53.120;5.786;2023-03-04T16:06:15;4.00;99.90
33803;DHT22;20110;53.120;5.786;2023-03-04T16:08:46;4.10;99.90
33803;DHT22;20110;53.120;5.786;2023-03-04T16:11:16;4.10;99.90
33803;DHT22;20110;53.120;5.786;2023-03-04T16:13:45;4.20;99.90
33803;DHT22;20110;53.120;5.786;2023-03-04T16:16:12;4.30;99.90
33803;DHT22;20110;53.120;5.786;2023-03-04T16:18:39;4.20;99.90
33803;DHT22;20110;53.120;5.786;2023-03-04T16:21:09;4.10;99.90
33803;DHT22;20110;53.120;5.786;2023-03-04T16:23:42;4.00;99.90
33803;DHT22;20110;53.120;5.786;2023-03-04T16:26:21;3.90;99.90
33803;DHT22;20110;53.120;5.786;2023-03-04T16:28:50;3.80;99.90
33803;DHT22;20110;53.120;5.786;2023-03-04T16:31:17;3.80;99.90
33803;DHT22;20110;53.120;5.786;2023-03-04T16:33:43;3.70;99.90
33803;DHT22;20110;53.120;5.786;2023-03-04T16:36:17;3.80;99.90
33803;DHT22;20110;53.120;5.786;2023-03-04T16:38:45;3.90;99.90
33803;DHT22;20110;53.120;5.786;2023-03-04T16:41:14;3.80;99.90
33803;DHT22;20110;53.120;5.786;2023-03-04T16:43:42;3.90;99.90
33803;DHT22;20110;53.120;5.786;2023-03-04T16:46:11;4.00;99.90
33803;DHT22;20110;53.120;5.786;2023-03-04T16:48:37;4.10;99.90
33803;DHT22;20110;53.120;5.786;2023-03-04T16:51:14;4.10;99.90
33803;DHT22;20110;53.120;5.786;2023-03-04T16:53:46;4.00;99.90
33803;DHT22;20110;53.120;5.786;2023-03-04T16:56:16;4.00;99.90
33803;DHT22;20110;53.120;5.786;2023-03-04T16:58:43;3.90;99.90
33803;DHT22;20110;53.120;5.786;2023-03-04T17:01:21;3.90;99.90
33803;DHT22;20110;53.120;5.786;2023-03-04T17:03:49;3.80;99.90
33803;DHT22;20110;53.120;5.786;2023-03-04T17:06:15;3.80;99.90
33803;DHT22;20110;53.120;5.786;2023-03-04T17:08:41;3.60;99.90
33803;DHT22;20110;53.120;5.786;2023-03-04T17:11:10;3.50;99.90
33803;DHT22;20110;53.120;5.786;2023-03-04T17:13:37;3.40;99.90
33803;DHT22;20110;53.120;5.786;2023-03-04T17:16:03;3.30;99.90
33803;DHT22;20110;53.120;5.786;2023-03-04T17:18:29;3.20;99.90
33803;DHT22;20110;53.120;5.786;2023-03-04T17:21:04;3.20;99.90
33803;DHT22;20110;53.120;5.786;2023-03-04T17:23:34;3.10;99.90
33803;DHT22;20110;53.120;5.786;2023-03-04T17:26:01;3.10;99.90
33803;DHT22;20110;53.120;5.786;2023-03-04T17:28:27;3.00;99.90
33803;DHT22;20110;53.120;5.786;2023-03-04T17:30:54;3.00;99.90
33803;DHT22;20110;53.120;5.786;2023-03-04T17:33:20;3.00;99.90
33803;DHT22;20110;53.120;5.786;2023-03-04T17:35:46;3.00;99.90
33803;DHT22;20110;53.120;5.786;2023-03-04T17:38:13;2.90;99.90
33803;DHT22;20110;53.120;5.786;2023-03-04T17:40:40;2.90;99.90
33803;DHT22;20110;53.120;5.786;2023-03-04T17:43:08;2.90;99.90
33803;DHT22;20110;53.120;5.786;2023-03-04T17:45:39;2.90;99.90
33803;DHT22;20110;53.120;5.786;2023-03-04T17:48:08;2.90;99.90
33803;DHT22;20110;53.120;5.786;2023-03-04T17:50:50;2.80;99.90
33803;DHT22;20110;53.120;5.786;2023-03-04T17:53:17;2.80;99.90
33803;DHT22;20110;53.120;5.786;2023-03-04T17:55:50;2.80;99.90
33803;DHT22;20110;53.120;5.786;2023-03-04T17:58:21;2.80;99.90
33803;DHT22;20110;53.120;5.786;2023-03-04T18:00:49;2.80;99.90
33803;DHT22;20110;53.120;5.786;2023-03-04T18:03:17;2.80;99.90
33803;DHT22;20110;53.120;5.786;2023-03-04T18:05:43;2.80;99.90
33803;DHT22;20110;53.120;5.786;2023-03-04T18:08:09;2.80;99.90
33803;DHT22;20110;53.120;5.786;2023-03-04T18:10:35;2.70;99.90
33803;DHT22;20110;53.120;5.786;2023-03-04T18:13:01;2.80;99.90
33803;DHT22;20110;53.120;5.786;2023-03-04T18:15:28;2.70;99.90